METAR Data
IDs: Format: Raw Decoded Include TAF

Data at: 0543 UTC 24 Sep 2018

KEMP 240453Z AUTO 15009KT 10SM CLR 17/14 A2997 RMK AO2 SLP144 T01670144
KEMP 240353Z AUTO 13005KT 10SM CLR 16/14 A2997 RMK AO2 SLP143 T01610139
KEMP 240253Z AUTO 12005KT 10SM CLR 17/14 A2996 RMK AO2 SLP143 T01720139 51005
KEMP 240153Z AUTO 12005KT 10SM CLR 18/14 A2996 RMK AO2 SLP144 T01830139
KEMP 240053Z AUTO 12004KT 10SM CLR 19/14 A2995 RMK AO2 SLP141 T01940139
KEMP 232353Z AUTO 12005KT 10SM CLR 22/14 A2995 RMK AO2 SLP139 T02220139 10256 20222 56010
KEMP 232253Z AUTO 13007KT 10SM CLR 24/13 A2996 RMK AO2 SLP141 T02440128
KEMP 232153Z AUTO 13008KT 10SM CLR 25/13 A2996 RMK AO2 SLP142 T02500128
KEMP 232053Z AUTO 11009KT 10SM CLR 25/14 A2998 RMK AO2 SLP148 T02500139 56025
KEMP 231953Z AUTO 09006KT 10SM CLR 24/13 A3000 RMK AO2 SLP155 T02440133
KEMP 231853Z AUTO 15008G17KT 10SM CLR 24/15 A3003 RMK AO2 SLP165 T02390150
KEMP 231753Z AUTO 12011KT 10SM CLR 23/14 A3006 RMK AO2 SLP175 T02280144 10228 20089 58010
KEMP 231653Z AUTO 14011KT 10SM CLR 22/15 A3008 RMK AO2 SLP181 T02170150
KEMP 231600Z AUTO 16007KT 120V190 10SM SCT013 20/16 A3009 RMK AO2 T02000156
KEMP 231553Z AUTO 12007KT 10SM BKN012 19/15 A3009 RMK AO2 SLP185 T01940150
KEMP 231516Z AUTO 15006KT 10SM BKN010 18/15 A3009 RMK AO2 CIG 007V013 T01780150
KEMP 231508Z AUTO 15006KT 10SM BKN008 18/16 A3009 RMK AO2 CIG 006V012 T01780156
KEMP 231453Z AUTO 16007KT 10SM FEW006 17/15 A3009 RMK AO2 SLP187 T01720150 52003
KEMP 231424Z AUTO 14005KT 8SM FEW006 16/14 A3009 RMK AO2 T01560144
KEMP 231353Z AUTO 14003KT 4SM BR CLR 14/13 A3008 RMK AO2 SLP185 T01390133
KEMP 231345Z AUTO 14004KT 3SM BR CLR 13/13 A3008 RMK AO2 T01330128
KEMP 231322Z AUTO 00000KT 1 1/2SM BR CLR 12/12 A3008 RMK AO2 T01220117
KEMP 231317Z AUTO 00000KT 1SM BR CLR 12/12 A3008 RMK AO2 T01170117
KEMP 231253Z AUTO 14004KT 1/4SM FG CLR 10/09 A3009 RMK AO2 SLP187 T01000094
KEMP 231210Z AUTO 09003KT 1/2SM FG CLR 10/09 A3008 RMK AO2 T01000094
KEMP 231205Z AUTO 00000KT 1/2SM FG VV004 10/09 A3008 RMK AO2 T01000094
KEMP 231153Z AUTO 00000KT 1/4SM FG VV003 10/09 A3008 RMK AO2 SLP184 T01000089 10122 20094 53004
KEMP 231053Z AUTO 00000KT 1/4SM FG VV002 10/09 A3007 RMK AO2 SLP181 T01000094
KEMP 230959Z AUTO 00000KT 1/2SM FG VV003 11/10 A3007 RMK AO2 T01060100
KEMP 230953Z AUTO 00000KT 1/2SM FG CLR 11/10 A3007 RMK AO2 SLP180 T01060100
KEMP 230946Z AUTO 00000KT 3/4SM BR CLR 10/09 A3007 RMK AO2 T01000094
KEMP 230944Z AUTO 00000KT 1 1/4SM BR CLR 11/10 A3007 RMK AO2 T01060100
KEMP 230938Z AUTO 00000KT 2SM BR CLR 11/10 A3007 RMK AO2 T01060100
KEMP 230930Z AUTO 00000KT 1 1/4SM BR CLR 11/10 A3007 RMK AO2 T01060100
KEMP 230922Z AUTO 00000KT 1 1/2SM BR CLR 11/10 A3007 RMK AO2 VIS 3/4V5 T01110100
KEMP 230853Z AUTO 00000KT 6SM BR CLR 11/10 A3007 RMK AO2 SLP179 T01060100 58007
KEMP 230753Z AUTO 00000KT 10SM CLR 12/10 A3007 RMK AO2 SLP181 T01170100
KEMP 230653Z AUTO 00000KT 10SM CLR 12/11 A3008 RMK AO2 SLP184 T01170106
KEMP 230553Z AUTO 14003KT 10SM CLR 13/12 A3009 RMK AO2 SLP186 T01280117 10194 20117 402220089 58007
KEMP 230453Z AUTO 10003KT 10SM CLR 13/11 A3009 RMK AO2 SLP189 T01330111
KEMP 230353Z AUTO 11004KT 10SM CLR 14/12 A3010 RMK AO2 SLP192 T01440117
KEMP 230253Z AUTO 12004KT 10SM CLR 16/12 A3011 RMK AO2 SLP194 T01560117 53003
KEMP 230153Z AUTO 11005KT 10SM CLR 16/12 A3010 RMK AO2 SLP192 T01610117
KEMP 230053Z AUTO 09004KT 10SM CLR 17/12 A3009 RMK AO2 SLP191 T01720117
KEMP 222353Z AUTO 06005KT 10SM CLR 19/12 A3010 RMK AO2 SLP192 T01940122 10222 20194 56009
KEMP 222253Z AUTO 08007KT 10SM CLR 22/12 A3011 RMK AO2 SLP194 T02170117
KEMP 222153Z AUTO 07007KT 10SM CLR 22/11 A3011 RMK AO2 SLP194 T02220111
KEMP 222053Z AUTO 08007KT 10SM CLR 22/11 A3013 RMK AO2 SLP200 T02170111 58026
KEMP 221953Z AUTO 10008G14KT 10SM CLR 22/11 A3015 RMK AO2 SLP208 T02170111
KEMP 221853Z AUTO 08009KT 10SM CLR 21/11 A3018 RMK AO2 SLP219 T02060106
KEMP 221753Z AUTO 07008G16KT 10SM CLR 19/11 A3021 RMK AO2 SLP227 T01940106 10194 20089 58018